CNLO2: Canton Lake

Data processed at Wed May 22 2019 23:50


All information presented herein is the property of the government of the United States of America and may be revised or deleted at any time without prior notice.
Dissemination of this information without the expressed written consent of the Public Affairs Office, Tulsa District U.S. Army Corps of Engineers is strictly prohibited.
These data are gathered electronically and, as presented, have not undergone any form of quality control. These data are not guaranteed to be valid or correct.
Go to home page.
Go to station list.
Go to home page.

Upstream stations:

Downstream station:
Previous Day
Next Day
Current Day
    
SHEF ID:       CNLO2     Canton Lake
STATION TYPE:  RESERVOIR
Flood Pool:  Bottom =  1615.40, Top =  1638.00

               PRECIP ELEVATION   STORAGE    INFLOW   RELEASE  AIR-TEMP  WIND-DIRWIND-SPEED REL-HUMID SOLAR-RAD   VOLTAGE  BAT-LOAD
                   in        ft     ac-ft       cfs       cfs         F       deg       mph         %      W/m2      volt      volt
              Ccp-Rev   Ccp-Rev   Ccp-Rev  Rev-Regi  Rev-Regi   Ccp-Rev   Ccp-Rev   Ccp-Rev   Ccp-Rev   Ccp-Rev   Ccp-Rev   Ccp-Rev
(US/Central)
05/22 00:00      0.00   1619.70    144778      1527         0     59.86     20.50      0.50     68.76      0.00     13.21     12.86
05/22 01:00      0.00   1619.71    144868      1091         0     57.42     21.80      1.00     75.32      0.00     13.21     12.80
05/22 02:00      0.00   1619.72    144958      1309         0     56.41     20.40      0.90     77.29      0.00     13.22     12.80
05/22 03:00      0.00   1619.73    145048      1309         0     55.33     22.70      0.60     79.11      0.00     13.21     12.81
05/22 04:00      0.00   1619.74    145138      1309         0     53.49     23.00      0.40     84.10      0.00     13.20     12.80
05/22 05:00      0.00   1619.76    145319      1309         0     51.94     22.60      0.60     86.05      0.00     13.22     12.80
05/22 06:00      0.00   1619.77    145409      1527         0     51.19     21.30      0.80     84.24      0.00     13.20     12.80
05/22 07:00      0.00   1619.78    145499      1527         0     50.74     19.10      0.70     83.30     10.60     13.21     12.80
05/22 08:00      0.00   1619.80    145679      1309         0     53.28     16.90      0.50     76.76    153.90     13.18     12.82
05/22 09:00      0.00   1619.81    145769      1527         0     57.51     22.90      1.10     62.95    348.00     13.56     12.81
05/22 10:00      0.00   1619.82    145860      1745         0     59.52     26.40      1.40     56.84    544.00     13.86     12.83
05/22 11:00      0.00   1619.84    146040      1527         0     61.99     17.60      1.90     53.82    672.90     14.18     12.85
05/22 12:00      0.00   1619.86    146220      1745         0     64.63     15.10      2.90     56.70    812.60     13.85     12.86
05/22 13:00      0.00   1619.87    146310      1745         0     68.83     20.00      1.40     56.13    909.90     13.95     12.86
05/22 14:00      0.00   1619.89    146491      1527         0     71.44     22.20      1.40     58.82    923.80     13.76     12.87
05/22 15:00      0.00   1619.90    146581      1309         0     74.50     20.40      1.70     59.96    900.60     13.77     12.88
05/22 16:00      0.00   1619.91    146671      1745         0     76.51     21.80      2.30     62.78    676.00     14.04     12.86
05/22 17:00      0.00   1619.92    146761      1309         0     79.29     19.70      3.60     55.00    472.10     13.95     12.84
05/22 18:00      0.00   1619.95    147032      1745         0     81.61     23.10      1.70     49.73    491.70     13.18     12.84
05/22 19:00      0.00   1619.95    147032      1527         0     77.68     25.00      1.80     70.12    192.10     13.21     12.82
05/22 20:00      0.00   1619.98    147302      1527         0     75.25     25.20      2.00     69.97     38.30     13.22     12.82
05/22 21:00      0.00   1619.98    147302      1777         0     72.00     23.70      1.30     75.22      1.60     13.20     12.81
05/22 22:00      0.00   1619.99    147392      1995         0     70.32     23.10      1.60     75.90      0.00     13.22     12.80
05/22 23:00      0.00   1620.03    147766      2930         0     69.64     23.00      1.90     76.58      0.00     13.21     12.80